sensor_id;sensor_type;location;lat;lon;timestamp;P1;durP1;ratioP1;P2;durP2;ratioP2
43807;SDS011;29438;50.664;10.098;2022-12-18T00:01:03;3.15;;;1.60;;
43807;SDS011;29438;50.664;10.098;2022-12-18T00:03:34;4.38;;;2.10;;
43807;SDS011;29438;50.664;10.098;2022-12-18T00:06:00;2.50;;;1.67;;
43807;SDS011;29438;50.664;10.098;2022-12-18T00:08:26;6.47;;;2.15;;
43807;SDS011;29438;50.664;10.098;2022-12-18T00:10:52;3.78;;;1.95;;
43807;SDS011;29438;50.664;10.098;2022-12-18T00:13:17;3.65;;;1.70;;
43807;SDS011;29438;50.664;10.098;2022-12-18T00:15:43;4.82;;;2.35;;
43807;SDS011;29438;50.664;10.098;2022-12-18T00:18:09;7.70;;;2.20;;
43807;SDS011;29438;50.664;10.098;2022-12-18T00:20:35;6.90;;;2.17;;
43807;SDS011;29438;50.664;10.098;2022-12-18T00:23:03;3.47;;;1.60;;
43807;SDS011;29438;50.664;10.098;2022-12-18T00:25:29;2.40;;;1.70;;
43807;SDS011;29438;50.664;10.098;2022-12-18T00:27:54;7.00;;;1.65;;
43807;SDS011;29438;50.664;10.098;2022-12-18T00:30:20;3.92;;;2.10;;
43807;SDS011;29438;50.664;10.098;2022-12-18T00:32:46;7.00;;;3.05;;
43807;SDS011;29438;50.664;10.098;2022-12-18T00:35:11;6.38;;;2.30;;
43807;SDS011;29438;50.664;10.098;2022-12-18T00:37:37;6.30;;;2.42;;
43807;SDS011;29438;50.664;10.098;2022-12-18T00:40:02;3.97;;;2.08;;
43807;SDS011;29438;50.664;10.098;2022-12-18T00:42:28;3.83;;;2.28;;
43807;SDS011;29438;50.664;10.098;2022-12-18T00:45:12;3.83;;;2.40;;
43807;SDS011;29438;50.664;10.098;2022-12-18T00:47:38;2.58;;;1.55;;
43807;SDS011;29438;50.664;10.098;2022-12-18T00:50:04;6.18;;;2.13;;
43807;SDS011;29438;50.664;10.098;2022-12-18T00:52:30;3.25;;;2.55;;
43807;SDS011;29438;50.664;10.098;2022-12-18T00:54:56;3.25;;;1.90;;
43807;SDS011;29438;50.664;10.098;2022-12-18T00:57:21;4.72;;;2.35;;
43807;SDS011;29438;50.664;10.098;2022-12-18T00:59:47;3.10;;;1.35;;
43807;SDS011;29438;50.664;10.098;2022-12-18T01:02:13;6.45;;;1.77;;
43807;SDS011;29438;50.664;10.098;2022-12-18T01:04:38;7.07;;;2.42;;
43807;SDS011;29438;50.664;10.098;2022-12-18T01:07:04;4.55;;;2.15;;
43807;SDS011;29438;50.664;10.098;2022-12-18T01:09:29;3.33;;;1.45;;
43807;SDS011;29438;50.664;10.098;2022-12-18T01:11:55;5.72;;;2.03;;
43807;SDS011;29438;50.664;10.098;2022-12-18T01:14:20;6.30;;;2.03;;
43807;SDS011;29438;50.664;10.098;2022-12-18T01:16:46;5.63;;;1.75;;
43807;SDS011;29438;50.664;10.098;2022-12-18T01:19:12;4.88;;;2.47;;
43807;SDS011;29438;50.664;10.098;2022-12-18T01:21:37;6.15;;;1.67;;
43807;SDS011;29438;50.664;10.098;2022-12-18T01:24:03;13.85;;;2.42;;
43807;SDS011;29438;50.664;10.098;2022-12-18T01:26:29;7.88;;;2.35;;
43807;SDS011;29438;50.664;10.098;2022-12-18T01:28:55;2.97;;;2.35;;
43807;SDS011;29438;50.664;10.098;2022-12-18T01:31:23;8.48;;;3.58;;
43807;SDS011;29438;50.664;10.098;2022-12-18T01:33:53;2.78;;;1.75;;
43807;SDS011;29438;50.664;10.098;2022-12-18T01:36:29;5.25;;;2.70;;
43807;SDS011;29438;50.664;10.098;2022-12-18T01:38:58;5.50;;;2.53;;
43807;SDS011;29438;50.664;10.098;2022-12-18T01:41:26;4.95;;;2.15;;
43807;SDS011;29438;50.664;10.098;2022-12-18T01:47:12;5.18;;;2.38;;
43807;SDS011;29438;50.664;10.098;2022-12-18T01:49:43;4.50;;;2.65;;
43807;SDS011;29438;50.664;10.098;2022-12-18T01:52:08;5.10;;;2.97;;
43807;SDS011;29438;50.664;10.098;2022-12-18T01:54:34;2.97;;;1.95;;
43807;SDS011;29438;50.664;10.098;2022-12-18T01:56:59;3.75;;;2.70;;
43807;SDS011;29438;50.664;10.098;2022-12-18T01:59:26;6.97;;;2.67;;
43807;SDS011;29438;50.664;10.098;2022-12-18T02:01:52;6.30;;;1.52;;
43807;SDS011;29438;50.664;10.098;2022-12-18T02:04:22;4.50;;;2.97;;
43807;SDS011;29438;50.664;10.098;2022-12-18T02:06:50;3.83;;;1.98;;
43807;SDS011;29438;50.664;10.098;2022-12-18T02:09:32;5.53;;;3.05;;
43807;SDS011;29438;50.664;10.098;2022-12-18T02:15:47;4.93;;;1.77;;
43807;SDS011;29438;50.664;10.098;2022-12-18T02:18:09;6.88;;;2.67;;
43807;SDS011;29438;50.664;10.098;2022-12-18T02:20:41;5.28;;;2.00;;
43807;SDS011;29438;50.664;10.098;2022-12-18T02:23:22;10.23;;;2.65;;
43807;SDS011;29438;50.664;10.098;2022-12-18T02:28:51;8.02;;;3.05;;
43807;SDS011;29438;50.664;10.098;2022-12-18T02:31:19;6.10;;;2.20;;
43807;SDS011;29438;50.664;10.098;2022-12-18T02:33:49;3.75;;;2.08;;
43807;SDS011;29438;50.664;10.098;2022-12-18T02:36:16;8.05;;;1.88;;
43807;SDS011;29438;50.664;10.098;2022-12-18T02:38:43;6.85;;;3.15;;
43807;SDS011;29438;50.664;10.098;2022-12-18T02:41:10;3.33;;;1.70;;
43807;SDS011;29438;50.664;10.098;2022-12-18T02:43:37;12.23;;;3.92;;
43807;SDS011;29438;50.664;10.098;2022-12-18T02:48:52;6.90;;;3.03;;
43807;SDS011;29438;50.664;10.098;2022-12-18T02:51:29;8.40;;;2.88;;
43807;SDS011;29438;50.664;10.098;2022-12-18T02:54:08;10.18;;;2.97;;
43807;SDS011;29438;50.664;10.098;2022-12-18T02:56:39;3.63;;;2.10;;
43807;SDS011;29438;50.664;10.098;2022-12-18T02:59:15;3.05;;;1.90;;
43807;SDS011;29438;50.664;10.098;2022-12-18T03:01:58;2.83;;;1.55;;
43807;SDS011;29438;50.664;10.098;2022-12-18T03:05:02;2.90;;;1.45;;
43807;SDS011;29438;50.664;10.098;2022-12-18T03:07:38;8.00;;;2.50;;
43807;SDS011;29438;50.664;10.098;2022-12-18T03:10:12;8.85;;;2.75;;
43807;SDS011;29438;50.664;10.098;2022-12-18T03:12:41;7.72;;;2.60;;
43807;SDS011;29438;50.664;10.098;2022-12-18T03:15:13;7.57;;;2.58;;
43807;SDS011;29438;50.664;10.098;2022-12-18T03:17:41;8.60;;;3.22;;
43807;SDS011;29438;50.664;10.098;2022-12-18T03:20:15;2.78;;;1.98;;
43807;SDS011;29438;50.664;10.098;2022-12-18T03:22:45;2.75;;;1.92;;
43807;SDS011;29438;50.664;10.098;2022-12-18T03:25:15;5.72;;;3.22;;
43807;SDS011;29438;50.664;10.098;2022-12-18T03:27:43;2.78;;;2.53;;
43807;SDS011;29438;50.664;10.098;2022-12-18T03:30:16;10.30;;;4.00;;
43807;SDS011;29438;50.664;10.098;2022-12-18T03:32:44;4.35;;;2.83;;
43807;SDS011;29438;50.664;10.098;2022-12-18T03:35:15;5.57;;;2.10;;
43807;SDS011;29438;50.664;10.098;2022-12-18T03:37:46;11.68;;;4.18;;
43807;SDS011;29438;50.664;10.098;2022-12-18T03:40:12;3.78;;;2.50;;
43807;SDS011;29438;50.664;10.098;2022-12-18T03:45:09;6.70;;;2.90;;
43807;SDS011;29438;50.664;10.098;2022-12-18T03:47:46;6.28;;;2.65;;
43807;SDS011;29438;50.664;10.098;2022-12-18T03:50:17;7.75;;;3.63;;
43807;SDS011;29438;50.664;10.098;2022-12-18T03:52:52;8.60;;;3.72;;
43807;SDS011;29438;50.664;10.098;2022-12-18T03:55:27;4.63;;;2.10;;
43807;SDS011;29438;50.664;10.098;2022-12-18T03:57:57;8.35;;;3.42;;
43807;SDS011;29438;50.664;10.098;2022-12-18T04:00:23;9.70;;;4.20;;
43807;SDS011;29438;50.664;10.098;2022-12-18T04:02:51;8.15;;;3.05;;
43807;SDS011;29438;50.664;10.098;2022-12-18T04:05:19;9.07;;;3.00;;
43807;SDS011;29438;50.664;10.098;2022-12-18T04:07:47;4.70;;;2.92;;
43807;SDS011;29438;50.664;10.098;2022-12-18T04:10:14;6.72;;;3.28;;
43807;SDS011;29438;50.664;10.098;2022-12-18T04:12:41;5.60;;;2.92;;
43807;SDS011;29438;50.664;10.098;2022-12-18T04:15:07;6.03;;;2.80;;
43807;SDS011;29438;50.664;10.098;2022-12-18T04:17:34;9.73;;;4.60;;
43807;SDS011;29438;50.664;10.098;2022-12-18T04:19:59;7.22;;;3.55;;
43807;SDS011;29438;50.664;10.098;2022-12-18T04:22:25;7.97;;;3.42;;
43807;SDS011;29438;50.664;10.098;2022-12-18T04:24:51;7.93;;;3.75;;
43807;SDS011;29438;50.664;10.098;2022-12-18T04:27:17;3.50;;;2.33;;
43807;SDS011;29438;50.664;10.098;2022-12-18T04:29:42;5.15;;;2.33;;
43807;SDS011;29438;50.664;10.098;2022-12-18T04:32:08;7.47;;;3.38;;
43807;SDS011;29438;50.664;10.098;2022-12-18T04:34:34;5.20;;;2.72;;
43807;SDS011;29438;50.664;10.098;2022-12-18T04:36:59;7.25;;;3.15;;
43807;SDS011;29438;50.664;10.098;2022-12-18T04:39:25;8.90;;;2.58;;
43807;SDS011;29438;50.664;10.098;2022-12-18T04:41:50;7.05;;;3.03;;
43807;SDS011;29438;50.664;10.098;2022-12-18T04:44:16;9.40;;;4.70;;
43807;SDS011;29438;50.664;10.098;2022-12-18T04:46:42;7.47;;;3.63;;
43807;SDS011;29438;50.664;10.098;2022-12-18T04:49:07;8.45;;;4.13;;
43807;SDS011;29438;50.664;10.098;2022-12-18T04:51:35;7.75;;;3.63;;
43807;SDS011;29438;50.664;10.098;2022-12-18T04:54:01;6.45;;;1.98;;
43807;SDS011;29438;50.664;10.098;2022-12-18T04:56:26;12.63;;;4.22;;
43807;SDS011;29438;50.664;10.098;2022-12-18T04:58:52;8.82;;;3.42;;
43807;SDS011;29438;50.664;10.098;2022-12-18T05:01:18;9.80;;;3.60;;
43807;SDS011;29438;50.664;10.098;2022-12-18T05:03:43;6.97;;;3.58;;
43807;SDS011;29438;50.664;10.098;2022-12-18T05:06:09;8.40;;;2.95;;
43807;SDS011;29438;50.664;10.098;2022-12-18T05:08:35;9.35;;;3.53;;
43807;SDS011;29438;50.664;10.098;2022-12-18T05:11:11;11.02;;;3.95;;
43807;SDS011;29438;50.664;10.098;2022-12-18T05:13:42;9.32;;;3.50;;
43807;SDS011;29438;50.664;10.098;2022-12-18T05:16:08;12.57;;;4.88;;
43807;SDS011;29438;50.664;10.098;2022-12-18T05:18:34;9.73;;;5.43;;
43807;SDS011;29438;50.664;10.098;2022-12-18T05:21:00;14.35;;;4.28;;
43807;SDS011;29438;50.664;10.098;2022-12-18T05:23:26;10.48;;;4.68;;
43807;SDS011;29438;50.664;10.098;2022-12-18T05:25:52;7.32;;;3.88;;
43807;SDS011;29438;50.664;10.098;2022-12-18T05:28:24;10.65;;;4.10;;
43807;SDS011;29438;50.664;10.098;2022-12-18T05:30:51;11.25;;;4.45;;
43807;SDS011;29438;50.664;10.098;2022-12-18T05:33:20;10.48;;;4.75;;
43807;SDS011;29438;50.664;10.098;2022-12-18T05:35:53;9.30;;;4.35;;
43807;SDS011;29438;50.664;10.098;2022-12-18T05:38:20;7.95;;;2.65;;
43807;SDS011;29438;50.664;10.098;2022-12-18T05:40:50;5.32;;;2.60;;
43807;SDS011;29438;50.664;10.098;2022-12-18T05:43:16;8.98;;;4.13;;
43807;SDS011;29438;50.664;10.098;2022-12-18T05:45:42;8.70;;;3.45;;
43807;SDS011;29438;50.664;10.098;2022-12-18T05:48:08;14.98;;;3.97;;
43807;SDS011;29438;50.664;10.098;2022-12-18T05:50:35;7.35;;;3.33;;
43807;SDS011;29438;50.664;10.098;2022-12-18T05:53:04;6.93;;;2.75;;
43807;SDS011;29438;50.664;10.098;2022-12-18T05:55:34;15.55;;;4.57;;
43807;SDS011;29438;50.664;10.098;2022-12-18T05:58:01;9.18;;;3.75;;
43807;SDS011;29438;50.664;10.098;2022-12-18T06:00:28;18.17;;;3.53;;
43807;SDS011;29438;50.664;10.098;2022-12-18T06:02:53;6.50;;;2.90;;
43807;SDS011;29438;50.664;10.098;2022-12-18T06:05:19;8.90;;;3.72;;
43807;SDS011;29438;50.664;10.098;2022-12-18T06:07:44;13.85;;;3.58;;
43807;SDS011;29438;50.664;10.098;2022-12-18T06:10:10;11.40;;;4.07;;
43807;SDS011;29438;50.664;10.098;2022-12-18T06:12:36;6.68;;;3.15;;
43807;SDS011;29438;50.664;10.098;2022-12-18T06:15:02;11.18;;;2.97;;
43807;SDS011;29438;50.664;10.098;2022-12-18T06:17:31;5.45;;;2.20;;
43807;SDS011;29438;50.664;10.098;2022-12-18T06:19:58;4.65;;;2.20;;
43807;SDS011;29438;50.664;10.098;2022-12-18T06:22:24;10.02;;;3.10;;
43807;SDS011;29438;50.664;10.098;2022-12-18T06:24:49;9.35;;;2.63;;
43807;SDS011;29438;50.664;10.098;2022-12-18T06:27:15;7.00;;;2.97;;
43807;SDS011;29438;50.664;10.098;2022-12-18T06:29:41;5.28;;;2.45;;
43807;SDS011;29438;50.664;10.098;2022-12-18T06:32:06;4.78;;;2.28;;
43807;SDS011;29438;50.664;10.098;2022-12-18T06:34:32;9.23;;;2.80;;
43807;SDS011;29438;50.664;10.098;2022-12-18T06:36:58;4.50;;;2.50;;
43807;SDS011;29438;50.664;10.098;2022-12-18T06:39:24;7.20;;;2.47;;
43807;SDS011;29438;50.664;10.098;2022-12-18T06:41:52;5.72;;;2.50;;
43807;SDS011;29438;50.664;10.098;2022-12-18T06:44:17;4.35;;;2.45;;
43807;SDS011;29438;50.664;10.098;2022-12-18T06:46:43;7.88;;;3.38;;
43807;SDS011;29438;50.664;10.098;2022-12-18T06:49:09;7.53;;;3.72;;
43807;SDS011;29438;50.664;10.098;2022-12-18T06:51:34;4.55;;;2.90;;
43807;SDS011;29438;50.664;10.098;2022-12-18T06:54:00;8.07;;;3.80;;
43807;SDS011;29438;50.664;10.098;2022-12-18T06:56:26;18.23;;;4.97;;
43807;SDS011;29438;50.664;10.098;2022-12-18T06:58:52;6.32;;;2.58;;
43807;SDS011;29438;50.664;10.098;2022-12-18T07:01:18;4.95;;;2.70;;
43807;SDS011;29438;50.664;10.098;2022-12-18T07:03:43;4.15;;;2.65;;
43807;SDS011;29438;50.664;10.098;2022-12-18T07:06:13;5.25;;;1.67;;
43807;SDS011;29438;50.664;10.098;2022-12-18T07:08:41;6.57;;;3.75;;
43807;SDS011;29438;50.664;10.098;2022-12-18T07:11:07;6.55;;;3.10;;
43807;SDS011;29438;50.664;10.098;2022-12-18T07:13:32;7.60;;;3.35;;
43807;SDS011;29438;50.664;10.098;2022-12-18T07:16:05;7.65;;;3.30;;
43807;SDS011;29438;50.664;10.098;2022-12-18T07:18:38;18.85;;;4.88;;
43807;SDS011;29438;50.664;10.098;2022-12-18T07:21:04;11.57;;;6.03;;
43807;SDS011;29438;50.664;10.098;2022-12-18T07:23:32;8.65;;;4.55;;
43807;SDS011;29438;50.664;10.098;2022-12-18T07:26:09;10.88;;;3.80;;
43807;SDS011;29438;50.664;10.098;2022-12-18T07:28:36;13.55;;;6.40;;
43807;SDS011;29438;50.664;10.098;2022-12-18T07:31:07;8.77;;;3.53;;
43807;SDS011;29438;50.664;10.098;2022-12-18T07:33:35;7.50;;;3.80;;
43807;SDS011;29438;50.664;10.098;2022-12-18T07:36:01;7.13;;;2.72;;
43807;SDS011;29438;50.664;10.098;2022-12-18T07:38:28;10.38;;;3.38;;
43807;SDS011;29438;50.664;10.098;2022-12-18T07:40:54;8.00;;;3.42;;
43807;SDS011;29438;50.664;10.098;2022-12-18T07:43:24;7.45;;;4.25;;
43807;SDS011;29438;50.664;10.098;2022-12-18T07:45:50;8.68;;;4.05;;
43807;SDS011;29438;50.664;10.098;2022-12-18T07:48:15;5.60;;;2.97;;
43807;SDS011;29438;50.664;10.098;2022-12-18T07:50:41;7.13;;;2.85;;
43807;SDS011;29438;50.664;10.098;2022-12-18T07:53:06;8.98;;;4.22;;
43807;SDS011;29438;50.664;10.098;2022-12-18T07:55:32;8.48;;;3.88;;
43807;SDS011;29438;50.664;10.098;2022-12-18T07:58:00;14.55;;;5.28;;
43807;SDS011;29438;50.664;10.098;2022-12-18T08:00:27;9.23;;;3.80;;
43807;SDS011;29438;50.664;10.098;2022-12-18T08:02:52;11.43;;;5.25;;
43807;SDS011;29438;50.664;10.098;2022-12-18T08:05:18;9.00;;;4.00;;
43807;SDS011;29438;50.664;10.098;2022-12-18T08:07:45;12.80;;;4.65;;
43807;SDS011;29438;50.664;10.098;2022-12-18T08:10:11;12.05;;;6.10;;
43807;SDS011;29438;50.664;10.098;2022-12-18T08:12:36;17.15;;;6.07;;
43807;SDS011;29438;50.664;10.098;2022-12-18T08:15:02;21.98;;;8.57;;
43807;SDS011;29438;50.664;10.098;2022-12-18T08:17:28;24.10;;;8.48;;
43807;SDS011;29438;50.664;10.098;2022-12-18T08:19:54;22.33;;;8.25;;
43807;SDS011;29438;50.664;10.098;2022-12-18T08:22:19;20.23;;;5.88;;
43807;SDS011;29438;50.664;10.098;2022-12-18T08:24:45;7.30;;;3.72;;
43807;SDS011;29438;50.664;10.098;2022-12-18T08:27:10;33.03;;;11.90;;
43807;SDS011;29438;50.664;10.098;2022-12-18T08:29:36;19.15;;;7.68;;
43807;SDS011;29438;50.664;10.098;2022-12-18T08:32:02;13.93;;;5.53;;
43807;SDS011;29438;50.664;10.098;2022-12-18T08:34:27;12.00;;;4.97;;
43807;SDS011;29438;50.664;10.098;2022-12-18T08:36:53;10.43;;;4.05;;
43807;SDS011;29438;50.664;10.098;2022-12-18T08:39:19;9.55;;;4.72;;
43807;SDS011;29438;50.664;10.098;2022-12-18T08:41:44;11.98;;;3.83;;
43807;SDS011;29438;50.664;10.098;2022-12-18T08:44:30;9.00;;;3.45;;
43807;SDS011;29438;50.664;10.098;2022-12-18T08:47:05;14.55;;;4.50;;
43807;SDS011;29438;50.664;10.098;2022-12-18T08:49:32;11.10;;;3.83;;
43807;SDS011;29438;50.664;10.098;2022-12-18T08:51:58;13.77;;;4.05;;
43807;SDS011;29438;50.664;10.098;2022-12-18T08:54:24;13.52;;;4.72;;
43807;SDS011;29438;50.664;10.098;2022-12-18T08:56:50;11.98;;;5.25;;
43807;SDS011;29438;50.664;10.098;2022-12-18T08:59:16;9.60;;;4.30;;
43807;SDS011;29438;50.664;10.098;2022-12-18T09:01:42;12.15;;;5.13;;
43807;SDS011;29438;50.664;10.098;2022-12-18T09:04:08;12.50;;;4.47;;
43807;SDS011;29438;50.664;10.098;2022-12-18T09:06:34;15.07;;;5.65;;
43807;SDS011;29438;50.664;10.098;2022-12-18T09:09:01;14.27;;;5.65;;
43807;SDS011;29438;50.664;10.098;2022-12-18T09:11:27;11.50;;;4.55;;
43807;SDS011;29438;50.664;10.098;2022-12-18T09:13:53;12.30;;;4.22;;
43807;SDS011;29438;50.664;10.098;2022-12-18T09:16:20;8.73;;;4.13;;
43807;SDS011;29438;50.664;10.098;2022-12-18T09:18:46;7.30;;;3.25;;
43807;SDS011;29438;50.664;10.098;2022-12-18T09:21:16;8.85;;;3.85;;
43807;SDS011;29438;50.664;10.098;2022-12-18T09:23:49;10.93;;;4.05;;
43807;SDS011;29438;50.664;10.098;2022-12-18T09:26:16;10.95;;;3.83;;
43807;SDS011;29438;50.664;10.098;2022-12-18T09:28:42;10.05;;;4.38;;
43807;SDS011;29438;50.664;10.098;2022-12-18T09:31:08;12.32;;;4.82;;
43807;SDS011;29438;50.664;10.098;2022-12-18T09:33:36;10.68;;;4.60;;
43807;SDS011;29438;50.664;10.098;2022-12-18T09:36:07;9.73;;;4.15;;
43807;SDS011;29438;50.664;10.098;2022-12-18T09:38:35;12.48;;;4.78;;
43807;SDS011;29438;50.664;10.098;2022-12-18T09:41:04;13.98;;;4.75;;
43807;SDS011;29438;50.664;10.098;2022-12-18T09:44:03;11.23;;;4.80;;
43807;SDS011;29438;50.664;10.098;2022-12-18T09:46:30;9.18;;;3.70;;
43807;SDS011;29438;50.664;10.098;2022-12-18T09:49:02;12.70;;;4.70;;
43807;SDS011;29438;50.664;10.098;2022-12-18T09:51:43;14.48;;;5.80;;
43807;SDS011;29438;50.664;10.098;2022-12-18T09:54:22;8.45;;;3.95;;
43807;SDS011;29438;50.664;10.098;2022-12-18T09:57:01;9.90;;;3.38;;
43807;SDS011;29438;50.664;10.098;2022-12-18T09:59:37;15.90;;;5.47;;
43807;SDS011;29438;50.664;10.098;2022-12-18T10:02:15;11.35;;;4.18;;
43807;SDS011;29438;50.664;10.098;2022-12-18T10:10:13;15.50;;;5.38;;
43807;SDS011;29438;50.664;10.098;2022-12-18T10:12:46;10.82;;;4.50;;
43807;SDS011;29438;50.664;10.098;2022-12-18T10:17:56;10.75;;;4.60;;
43807;SDS011;29438;50.664;10.098;2022-12-18T10:20:47;16.02;;;6.03;;
43807;SDS011;29438;50.664;10.098;2022-12-18T10:24:03;10.15;;;4.88;;
43807;SDS011;29438;50.664;10.098;2022-12-18T10:26:12;14.48;;;4.95;;
43807;SDS011;29438;50.664;10.098;2022-12-18T10:28:38;14.55;;;5.82;;
43807;SDS011;29438;50.664;10.098;2022-12-18T10:31:06;18.38;;;6.03;;
43807;SDS011;29438;50.664;10.098;2022-12-18T10:33:37;16.52;;;6.07;;
43807;SDS011;29438;50.664;10.098;2022-12-18T10:36:03;12.93;;;4.57;;
43807;SDS011;29438;50.664;10.098;2022-12-18T10:38:30;15.25;;;6.53;;
43807;SDS011;29438;50.664;10.098;2022-12-18T10:41:01;16.77;;;5.80;;
43807;SDS011;29438;50.664;10.098;2022-12-18T10:43:32;14.27;;;5.10;;
43807;SDS011;29438;50.664;10.098;2022-12-18T10:48:30;12.60;;;5.43;;
43807;SDS011;29438;50.664;10.098;2022-12-18T10:50:58;12.23;;;5.18;;
43807;SDS011;29438;50.664;10.098;2022-12-18T10:53:25;10.90;;;4.63;;
43807;SDS011;29438;50.664;10.098;2022-12-18T10:55:54;16.63;;;5.32;;
43807;SDS011;29438;50.664;10.098;2022-12-18T11:01:01;17.73;;;5.75;;
43807;SDS011;29438;50.664;10.098;2022-12-18T11:03:31;12.55;;;5.03;;
43807;SDS011;29438;50.664;10.098;2022-12-18T11:08:43;9.18;;;4.30;;
43807;SDS011;29438;50.664;10.098;2022-12-18T11:11:22;12.23;;;4.43;;
43807;SDS011;29438;50.664;10.098;2022-12-18T11:14:12;9.88;;;3.85;;
43807;SDS011;29438;50.664;10.098;2022-12-18T11:16:48;15.77;;;5.68;;
43807;SDS011;29438;50.664;10.098;2022-12-18T11:19:34;12.95;;;4.05;;
43807;SDS011;29438;50.664;10.098;2022-12-18T11:22:03;11.45;;;4.63;;
43807;SDS011;29438;50.664;10.098;2022-12-18T11:27:37;14.25;;;4.53;;
43807;SDS011;29438;50.664;10.098;2022-12-18T11:32:46;11.25;;;4.40;;
43807;SDS011;29438;50.664;10.098;2022-12-18T11:35:42;14.90;;;5.50;;
43807;SDS011;29438;50.664;10.098;2022-12-18T11:38:23;16.23;;;5.65;;
43807;SDS011;29438;50.664;10.098;2022-12-18T11:40:53;12.98;;;5.28;;
43807;SDS011;29438;50.664;10.098;2022-12-18T11:43:31;15.52;;;5.47;;
43807;SDS011;29438;50.664;10.098;2022-12-18T11:46:05;7.53;;;3.83;;
43807;SDS011;29438;50.664;10.098;2022-12-18T11:49:26;9.75;;;3.85;;
43807;SDS011;29438;50.664;10.098;2022-12-18T11:52:23;13.20;;;4.63;;
43807;SDS011;29438;50.664;10.098;2022-12-18T11:54:28;11.85;;;4.93;;
43807;SDS011;29438;50.664;10.098;2022-12-18T11:56:55;11.43;;;4.35;;
43807;SDS011;29438;50.664;10.098;2022-12-18T11:59:53;14.32;;;4.55;;
43807;SDS011;29438;50.664;10.098;2022-12-18T12:07:53;11.07;;;3.97;;
43807;SDS011;29438;50.664;10.098;2022-12-18T12:13:19;11.50;;;4.03;;
43807;SDS011;29438;50.664;10.098;2022-12-18T12:18:29;18.63;;;5.55;;
43807;SDS011;29438;50.664;10.098;2022-12-18T12:21:02;14.00;;;5.63;;
43807;SDS011;29438;50.664;10.098;2022-12-18T12:37:15;13.63;;;4.57;;
43807;SDS011;29438;50.664;10.098;2022-12-18T12:39:50;10.60;;;4.03;;
43807;SDS011;29438;50.664;10.098;2022-12-18T12:42:31;10.18;;;4.68;;
43807;SDS011;29438;50.664;10.098;2022-12-18T12:45:30;12.18;;;5.28;;
43807;SDS011;29438;50.664;10.098;2022-12-18T12:48:09;11.80;;;5.00;;
43807;SDS011;29438;50.664;10.098;2022-12-18T12:50:42;12.23;;;4.22;;
43807;SDS011;29438;50.664;10.098;2022-12-18T12:53:09;16.50;;;5.25;;
43807;SDS011;29438;50.664;10.098;2022-12-18T12:55:46;9.77;;;3.53;;
43807;SDS011;29438;50.664;10.098;2022-12-18T13:04:36;11.95;;;4.78;;
43807;SDS011;29438;50.664;10.098;2022-12-18T13:13:27;13.70;;;5.50;;
43807;SDS011;29438;50.664;10.098;2022-12-18T13:15:45;15.50;;;6.55;;
43807;SDS011;29438;50.664;10.098;2022-12-18T13:18:13;15.80;;;5.95;;
43807;SDS011;29438;50.664;10.098;2022-12-18T13:20:48;13.85;;;5.05;;
43807;SDS011;29438;50.664;10.098;2022-12-18T13:25:47;7.80;;;3.20;;
43807;SDS011;29438;50.664;10.098;2022-12-18T13:28:49;15.98;;;5.82;;
43807;SDS011;29438;50.664;10.098;2022-12-18T13:31:12;12.38;;;4.57;;
43807;SDS011;29438;50.664;10.098;2022-12-18T13:36:13;9.98;;;4.32;;
43807;SDS011;29438;50.664;10.098;2022-12-18T13:38:39;17.23;;;5.13;;
43807;SDS011;29438;50.664;10.098;2022-12-18T13:43:53;14.18;;;5.53;;
43807;SDS011;29438;50.664;10.098;2022-12-18T13:46:24;12.02;;;4.55;;
43807;SDS011;29438;50.664;10.098;2022-12-18T13:49:19;11.98;;;4.40;;
43807;SDS011;29438;50.664;10.098;2022-12-18T13:51:51;10.98;;;3.90;;
43807;SDS011;29438;50.664;10.098;2022-12-18T13:54:28;13.18;;;4.85;;
43807;SDS011;29438;50.664;10.098;2022-12-18T13:57:04;12.02;;;4.82;;
43807;SDS011;29438;50.664;10.098;2022-12-18T14:02:07;15.18;;;4.90;;
43807;SDS011;29438;50.664;10.098;2022-12-18T14:04:39;13.70;;;5.32;;
43807;SDS011;29438;50.664;10.098;2022-12-18T14:07:05;12.60;;;5.38;;
43807;SDS011;29438;50.664;10.098;2022-12-18T14:09:39;20.77;;;7.10;;
43807;SDS011;29438;50.664;10.098;2022-12-18T14:12:20;11.02;;;3.88;;
43807;SDS011;29438;50.664;10.098;2022-12-18T14:17:50;12.30;;;5.00;;
43807;SDS011;29438;50.664;10.098;2022-12-18T14:20:22;17.10;;;6.72;;
43807;SDS011;29438;50.664;10.098;2022-12-18T14:22:49;15.00;;;4.88;;
43807;SDS011;29438;50.664;10.098;2022-12-18T14:28:10;14.45;;;5.05;;
43807;SDS011;29438;50.664;10.098;2022-12-18T14:30:34;13.95;;;5.68;;
43807;SDS011;29438;50.664;10.098;2022-12-18T14:33:08;12.17;;;5.10;;
43807;SDS011;29438;50.664;10.098;2022-12-18T14:35:40;10.30;;;3.55;;
43807;SDS011;29438;50.664;10.098;2022-12-18T14:38:53;16.05;;;5.03;;
43807;SDS011;29438;50.664;10.098;2022-12-18T14:41:02;15.13;;;5.22;;
43807;SDS011;29438;50.664;10.098;2022-12-18T14:43:31;17.55;;;5.55;;
43807;SDS011;29438;50.664;10.098;2022-12-18T14:45:59;10.18;;;3.25;;
43807;SDS011;29438;50.664;10.098;2022-12-18T14:48:33;8.18;;;3.45;;
43807;SDS011;29438;50.664;10.098;2022-12-18T14:53:45;13.27;;;4.82;;
43807;SDS011;29438;50.664;10.098;2022-12-18T14:56:17;17.10;;;4.90;;
43807;SDS011;29438;50.664;10.098;2022-12-18T14:58:49;14.00;;;5.25;;
43807;SDS011;29438;50.664;10.098;2022-12-18T15:01:22;17.95;;;6.00;;
43807;SDS011;29438;50.664;10.098;2022-12-18T15:03:51;14.68;;;5.85;;
43807;SDS011;29438;50.664;10.098;2022-12-18T15:06:24;13.73;;;5.28;;
43807;SDS011;29438;50.664;10.098;2022-12-18T15:08:59;12.30;;;4.72;;
43807;SDS011;29438;50.664;10.098;2022-12-18T15:13:57;14.60;;;4.90;;
43807;SDS011;29438;50.664;10.098;2022-12-18T15:16:24;14.32;;;5.32;;
43807;SDS011;29438;50.664;10.098;2022-12-18T15:18:50;12.43;;;3.08;;
43807;SDS011;29438;50.664;10.098;2022-12-18T15:21:16;9.57;;;4.80;;
43807;SDS011;29438;50.664;10.098;2022-12-18T15:26:10;14.80;;;5.07;;
43807;SDS011;29438;50.664;10.098;2022-12-18T15:33:37;12.55;;;4.13;;
43807;SDS011;29438;50.664;10.098;2022-12-18T15:36:11;7.53;;;3.65;;
43807;SDS011;29438;50.664;10.098;2022-12-18T15:38:39;7.00;;;3.22;;
43807;SDS011;29438;50.664;10.098;2022-12-18T15:41:05;13.15;;;4.10;;
43807;SDS011;29438;50.664;10.098;2022-12-18T15:43:32;16.23;;;6.05;;
43807;SDS011;29438;50.664;10.098;2022-12-18T15:48:31;12.48;;;4.20;;
43807;SDS011;29438;50.664;10.098;2022-12-18T15:50:59;12.55;;;4.85;;
43807;SDS011;29438;50.664;10.098;2022-12-18T15:53:26;13.48;;;4.68;;
43807;SDS011;29438;50.664;10.098;2022-12-18T15:55:55;10.60;;;4.05;;
43807;SDS011;29438;50.664;10.098;2022-12-18T15:58:39;14.77;;;4.32;;
43807;SDS011;29438;50.664;10.098;2022-12-18T16:01:05;14.63;;;4.72;;
43807;SDS011;29438;50.664;10.098;2022-12-18T16:03:32;13.15;;;4.63;;
43807;SDS011;29438;50.664;10.098;2022-12-18T16:05:58;8.15;;;3.72;;
43807;SDS011;29438;50.664;10.098;2022-12-18T16:08:26;9.93;;;3.88;;
43807;SDS011;29438;50.664;10.098;2022-12-18T16:10:54;12.65;;;4.43;;
43807;SDS011;29438;50.664;10.098;2022-12-18T16:13:19;11.18;;;4.72;;
43807;SDS011;29438;50.664;10.098;2022-12-18T16:15:45;9.45;;;3.90;;
43807;SDS011;29438;50.664;10.098;2022-12-18T16:18:11;11.25;;;4.63;;
43807;SDS011;29438;50.664;10.098;2022-12-18T16:20:36;11.45;;;4.95;;
43807;SDS011;29438;50.664;10.098;2022-12-18T16:23:03;13.30;;;5.15;;
43807;SDS011;29438;50.664;10.098;2022-12-18T16:25:29;15.90;;;5.65;;
43807;SDS011;29438;50.664;10.098;2022-12-18T16:27:55;12.40;;;5.25;;